• Join FlightAware (Why Join?)
  • Login
  • US Flag 
08:16PM EDT


 

Airport Tracker/Info


-or-


 

Live Flight TrackerFlight Track Log ✈ N108RJ ✈ 30-Jun-2013 ✈ CYYJ - KPDX

Flight Track Log - Related Links

Times and Time Zones

All times are in EDT time to prevent confusion due to time zone crossing. See the N108RJ flight status page for this flight to view local times or setup timezone preferences in your user account.

Time Position Orientation Groundspeed Altitude Reporting Facility
EDT Latitude Longitude Course Direction KTS MPH feet Rate Location/Type
05:05PM 48.6167 -123.3667 194° South 160 184 1,400  Level Vancouver Center
05:06PM 48.6000 -123.3000 111° Southeast 160 184 3,300 1,920 Climbing Vancouver Center
05:07PM 48.5667 -123.3000 180° South 160 184 5,300 1,800 Climbing Vancouver Center
05:08PM 48.5167 -123.3000 180° South 160 184 6,900 1,560 Climbing Vancouver Center
05:09PM 48.2892 -123.3237 174° South  Level Estimated
05:09PM 48.4833 -123.3000 180° South 160 184 8,500  Level Vancouver Center
05:10PM 48.2295 -123.3068 176° South  Level Estimated
05:10PM 48.4333 -123.3000 180° South 160 184 10,100  Level Vancouver Center
05:11PM 48.1706 -123.3285 194° South  Level FlightAware Approximate
05:11PM 48.3833 -123.2667 156° South 160 184 11,600  Level Vancouver Center
05:12PM 48.3333 -123.2667 180° South 170 196 13,200 1,380 Climbing Vancouver Center
05:13PM 48.3000 -123.2667 180° South 170 196 14,400 1,200 Climbing Vancouver Center
05:14PM 48.2500 -123.2667 180° South 180 207 15,700 1,200 Climbing Vancouver Center
05:15PM 48.2000 -123.2500 167° South 170 196 16,900 1,200 Climbing Vancouver Center
05:16PM 48.1500 -123.2500 180° South 170 196 18,100 1,200 Climbing Vancouver Center
05:17PM 48.1000 -123.2500 180° South 170 196 19,300 1,020 Climbing Vancouver Center
05:18PM 48.0883 -123.2583 206° Southwest 175 201 20,000 780 Climbing Seattle Center
05:19PM 48.0406 -123.2581 180° South 174 200 20,800 840 Climbing Seattle Center
05:20PM 47.9914 -123.2561 178° South 176 203 21,800 780 Climbing Seattle Center
05:21PM 47.9281 -123.2553 179° South 188 216 22,500 540 Climbing Seattle Center
05:22PM 47.8736 -123.2533 179° South 197 227 22,900 240 Climbing Seattle Center
05:23PM 47.8169 -123.2517 179° South 203 234 23,000  Climbing Seattle Center
05:25PM 47.6947 -123.2494 179° South 220 253 23,000  Level Seattle Center
05:26PM 47.6328 -123.2478 179° South 224 258 23,000  Level Seattle Center
05:27PM 47.5717 -123.2439 178° South 223 257 23,000  Level Seattle Center
05:28PM 47.4981 -123.2428 179° South 224 258 23,000  Level Seattle Center
05:29PM 47.4381 -123.2417 179° South 219 252 23,000  Level Seattle Center
05:30PM 47.3761 -123.2386 178° South 224 258 23,000  Level Seattle Center
05:31PM 47.3161 -123.2372 179° South 221 254 23,000  Level Seattle Center
05:32PM 47.2558 -123.2372 180° South 219 252 23,000  Level Seattle Center
05:33PM 47.1956 -123.2350 179° South 219 252 23,000  Level Seattle Center
05:34PM 47.1339 -123.2317 178° South 223 257 23,000  Level Seattle Center
05:35PM 47.0603 -123.2311 180° South 223 257 23,000  Level Seattle Center
05:36PM 47.0003 -123.2281 178° South 219 252 23,000  Level Seattle Center
05:37PM 46.9386 -123.2264 179° South 222 255 23,000 -120 Level Seattle Center
05:38PM 46.8778 -123.2242 179° South 222 255 22,800 -960 Descending Seattle Center
05:39PM 46.8097 -123.2228 179° South 243 280 21,100 -1,680 Descending Seattle Center
05:40PM 46.7367 -123.2203 179° South 262 302 19,400 -1,680 Descending Seattle Center
05:41PM 46.6650 -123.2219 181° South 258 297 17,800 -1,560 Descending Seattle Center
05:42PM 46.5903 -123.2189 178° South 267 307 16,300 -1,380 Descending Seattle Center
05:43PM 46.5061 -123.2164 179° South 257 296 15,000 -1,140 Descending Seattle Center
05:44PM 46.4453 -123.2153 179° South 252 290 14,100 -1,020 Descending Seattle Center
05:45PM 46.3764 -123.2114 178° South 247 284 13,000 -1,080 Descending Seattle Center
05:46PM 46.3097 -123.2108 180° South 243 280 12,000 -960 Descending Seattle Center
05:47PM 46.2289 -123.2072 178° South 241 277 11,100 -540 Descending Seattle Center
05:48PM 46.1792 -123.2036 177° South 232 267 11,100  Level Seattle Center
05:49PM 46.1206 -123.2025 179° South 222 255 11,100  Level Seattle Center
05:50PM 46.0600 -123.2019 180° South 221 254 11,100  Level Seattle Center
05:51PM 45.9986 -123.1983 178° South 220 253 11,100  Level Seattle Center
05:52PM 45.9450 -123.1889 173° South 223 257 11,100  Level Seattle Center
05:53PM 45.9094 -123.0947 118° Southeast 242 278 11,100 -240 Level Seattle Center
05:54PM 45.8814 -123.0069 115° Southeast 238 274 10,600 -1,140 Descending Seattle Center
05:55PM 45.8525 -122.9164 115° Southeast 255 293 8,900 -1,200 Descending Seattle Center
05:56PM 45.8206 -122.8208 116° Southeast 245 282 8,100 -360 Descending Seattle Center
05:57PM 45.7933 -122.7292 113° Southeast 228 262 8,100  Level Seattle Center
05:58PM 45.7667 -122.6525 116° Southeast 219 252 8,100 -540 Level Seattle Center
05:59PM 45.7347 -122.5867 125° Southeast 221 254 7,200 -1,260 Descending Seattle Center
06:00PM 45.6986 -122.5147 126° Southeast 238 274 6,100 -900 Descending Seattle Center
06:02PM 45.6564 -122.4231 123° Southeast 214 246 5,100 -780 Descending Seattle Center
06:02PM 45.6383 -122.3881 126° Southeast 187 215 4,600 -720 Descending Seattle Center
06:03PM 45.5978 -122.4017 193° South 208 239 4,100 -900 Descending Seattle Center
06:04PM 45.5928 -122.4317 257° West 188 216 3,300 -1,380 Descending Seattle Center
06:05PM 45.5711 -122.4958 244° Southwest 184 212 2,000 -1,440 Descending Seattle Center
06:05PM 45.5667 -122.5258 258° West 86 99 900 -780 Descending Seattle Center
06:07PM 45.5825 -122.5728 296° West 128 147 500 -300 Descending Seattle Center